Strona główna
METAR-TAF:

METAR-TAF

Lotnisko :

Port lotniczy Fortaleza

Fortaleza, Ceará, Brazylia

Szerokość geograficzna: 03-47S, Długość geograficzna: 038-32W, wysokość: 25 m

Aktualna obserwacja pogody

Raport powstał 28 minut temu, godzina 20:00 UTC
Wiatr 7 kt od wschodnio-północny wschód
Temperatura 28°C
Wilgotność 79%
Ciśnienie 1008 hPa
Widzialność 10 km lub więcej
Mało chmury na wysokości 2500 ft

METAR: SBFZ 252000Z 06007KT 9999 FEW025 28/24 Q1008

czas: 17:28 (20:28 UTC)

Prognoza

Raport powstał 5 godziny i 28 minut temu, godzina 15:00 UTC
Prognoza ważna od 25 godzina 18 UTC do 26 godzina 18 UTC
Wiatr 17 kt od wschód
Widzialność 10 km lub więcej
Rozproszone chmury na wysokości 2500 ft
Stopniowe zmiany
od 25 godzina 19 UTC do 25 godzina 21 UTC
Wiatr 7 kt od wschodnio-północny wschód
Mało chmury na wysokości 2000 ft
Stopniowe zmiany
od 26 godzina 10 UTC do 26 godzina 12 UTC
Wiatr 17 kt od wschód

TAF: SBFZ 251500Z 2518/2618 08017KT 9999 SCT025 TN25/2609Z TX32/2615Z BECMG 2519/2521 06007KT FEW020 BECMG 2610/2612 10017KT RMK PGY

Obserwacja i prognoza pogody dla ponad 4000 lotnisk (raport METAR i TAF).

Dostępne stacje oznaczono żółtymi i czerwonymi punktami na mapie.

Najedź kursorem aby zobaczyć nazwę stacji.

Kliknij aby zobaczyć obserwacje i prognozy pogody.

Aby zmienić mapę: kliknij na zielony przycisk z czarnym krzyżykiem, aby powiększyć; na zielony przycisk z myślnikiem, aby pomniejszyć; na zielone strzałki, aby przejść do map sąsiednich.


METAR-TAF: